Chateauroux-Deols "Marcel Dassault" Airport


Codes: LFLX/CHR
Name: Chateauroux-Deols "Marcel Dassault" Airport
City: Chateauroux/Deols
Country: France
Elevation: 529 ft.
Wikipedia:

Photos at Chateauroux-Deols "Marcel Dassault" Airport


   Photos courtesy of SpottingLog. You can add your own sightings and photos by signing up for a free trial today.



No photos found.

Weather at Chateauroux-Deols "Marcel Dassault" Airport


Time (UTC)DescriptionTempratureWindCloud coverageVisibilityPressureHumidity
13-Jun-2024 03:00Clear Sky8°C4 mph, SW2%10000m1020hPa92%
13-Jun-2024 06:00Clear Sky9°C4 mph, SW3%10000m1021hPa89%
13-Jun-2024 09:00Broken Clouds15°C7 mph, SW67%10000m1020hPa70%
13-Jun-2024 12:00Broken Clouds17°C4 mph, SW81%10000m1018hPa57%
13-Jun-2024 15:00Overcast Clouds18°C4 mph, NW100%10000m1016hPa60%
13-Jun-2024 18:00Overcast Clouds17°C4 mph, W100%10000m1015hPa77%
13-Jun-2024 21:00Overcast Clouds15°C7 mph, S100%10000m1015hPa73%
14-Jun-2024 00:00Light Rain11°C7 mph, W100%10000m1014hPa96%
14-Jun-2024 03:00Moderate Rain12°C9 mph, S100%10000m1012hPa98%
14-Jun-2024 06:00Light Rain14°C13 mph, SW100%10000m1012hPa97%
14-Jun-2024 09:00Light Rain15°C16 mph, S100%10000m1012hPa95%
14-Jun-2024 12:00Light Rain15°C16 mph, S100%10000m1011hPa93%
14-Jun-2024 15:00Light Rain15°C16 mph, S94%10000m1011hPa96%
14-Jun-2024 18:00Light Rain15°C11 mph, SW97%10000m1009hPa95%
14-Jun-2024 21:00Light Rain14°C13 mph, SW100%10000m1010hPa96%
15-Jun-2024 00:00Light Rain13°C18 mph, SW100%10000m1010hPa92%
15-Jun-2024 03:00Light Rain11°C16 mph, SW56%10000m1011hPa94%
15-Jun-2024 06:00Scattered Clouds12°C13 mph, SW32%10000m1013hPa94%
15-Jun-2024 09:00Light Rain15°C13 mph, SW1%10000m1014hPa68%
15-Jun-2024 12:00Light Rain16°C16 mph, SW46%10000m1014hPa69%
15-Jun-2024 15:00Broken Clouds18°C18 mph, SW75%10000m1012hPa69%
15-Jun-2024 18:00Broken Clouds16°C16 mph, W57%10000m1013hPa74%
15-Jun-2024 21:00Overcast Clouds14°C13 mph, SW91%10000m1014hPa76%
16-Jun-2024 00:00Overcast Clouds11°C9 mph, SW96%10000m1015hPa96%
16-Jun-2024 03:00Overcast Clouds10°C9 mph, SW100%10000m1014hPa95%
16-Jun-2024 06:00Overcast Clouds12°C11 mph, SW99%10000m1015hPa90%
16-Jun-2024 09:00Scattered Clouds17°C13 mph, SW45%10000m1014hPa73%
16-Jun-2024 12:00Broken Clouds19°C11 mph, SW71%10000m1014hPa67%
16-Jun-2024 15:00Overcast Clouds19°C11 mph, SW100%10000m1014hPa72%
16-Jun-2024 18:00Light Rain18°C9 mph, SW100%10000m1014hPa84%
16-Jun-2024 21:00Broken Clouds14°C4 mph, SW78%10000m1015hPa95%
17-Jun-2024 00:00Broken Clouds14°C4 mph, SW81%10000m1015hPa95%
17-Jun-2024 03:00Overcast Clouds13°C4 mph, S98%10000m1014hPa94%
17-Jun-2024 06:00Overcast Clouds15°C2 mph, S99%10000m1014hPa90%
17-Jun-2024 09:00Overcast Clouds20°C2 mph, SE100%10000m1014hPa77%
17-Jun-2024 12:00Overcast Clouds23°C4 mph, SE100%10000m1014hPa66%
17-Jun-2024 15:00Overcast Clouds24°C4 mph, E98%10000m1012hPa69%
17-Jun-2024 18:00Overcast Clouds22°C7 mph, NE99%10000m1012hPa82%
17-Jun-2024 21:00Light Rain17°C4 mph, NE100%10000m1013hPa93%
18-Jun-2024 00:00Light Rain17°C7 mph, SE100%10000m1012hPa92%